createdAt,value
2022-11-26T00:05:47.851Z,5.16
2022-11-26T00:16:13.286Z,5.09
2022-11-26T00:26:34.827Z,5.10
2022-11-26T00:36:56.297Z,5.12
2022-11-26T00:47:17.775Z,5.08
2022-11-26T00:57:39.259Z,4.99
2022-11-26T01:08:07.407Z,4.87
2022-11-26T01:18:36.000Z,4.70
2022-11-26T01:28:57.468Z,4.65
2022-11-26T01:39:21.517Z,4.59
2022-11-26T01:49:42.967Z,4.52
2022-11-26T02:00:05.132Z,4.49
2022-11-26T02:10:26.481Z,4.43
2022-11-26T02:21:00.077Z,4.46
2022-11-26T02:31:46.536Z,4.45
2022-11-26T02:42:40.611Z,4.48
2022-11-26T02:53:04.218Z,4.34
2022-11-26T03:03:30.733Z,4.32
2022-11-26T03:13:52.277Z,4.33
2022-11-26T03:24:14.079Z,4.32
2022-11-26T03:34:35.707Z,4.33
2022-11-26T03:44:57.301Z,4.36
2022-11-26T03:55:18.891Z,4.33
2022-11-26T04:05:40.428Z,4.30
2022-11-26T04:16:02.064Z,4.15
2022-11-26T04:26:23.774Z,4.03
2022-11-26T04:36:45.261Z,3.97
2022-11-26T04:47:06.755Z,3.80
2022-11-26T04:57:28.203Z,3.64
2022-11-26T05:07:49.797Z,3.52
2022-11-26T05:18:11.335Z,3.44
2022-11-26T05:28:32.863Z,3.41
2022-11-26T05:38:56.466Z,3.34
2022-11-26T05:49:17.978Z,3.37
2022-11-26T05:59:39.456Z,3.28
2022-11-26T06:10:00.915Z,3.32
2022-11-26T06:20:22.374Z,3.41
2022-11-26T06:30:45.301Z,3.42
2022-11-26T06:41:08.457Z,3.49
2022-11-26T06:51:31.867Z,3.61
2022-11-26T07:01:53.404Z,3.70
2022-11-26T07:12:14.967Z,3.79
2022-11-26T07:22:36.473Z,3.81
2022-11-26T07:32:57.933Z,3.81
2022-11-26T07:43:19.482Z,3.88
2022-11-26T07:53:40.959Z,3.96
2022-11-26T08:04:05.776Z,4.07
2022-11-26T08:14:27.275Z,4.15
2022-11-26T08:24:49.843Z,4.20
2022-11-26T08:35:12.132Z,4.23
2022-11-26T08:45:33.692Z,4.27
2022-11-26T08:56:09.605Z,4.40
2022-11-26T09:06:33.629Z,4.49
2022-11-26T09:16:56.679Z,4.64
2022-11-26T09:27:18.338Z,4.62
2022-11-26T09:37:39.841Z,4.66
2022-11-26T09:48:03.079Z,4.83
2022-11-26T09:58:36.791Z,4.93
2022-11-26T10:09:10.308Z,5.08
2022-11-26T10:19:34.890Z,5.22
2022-11-26T10:30:04.963Z,5.38
2022-11-26T10:40:29.518Z,5.52
2022-11-26T10:51:26.694Z,5.61
2022-11-26T11:01:51.716Z,5.74
2022-11-26T11:12:21.818Z,5.94
2022-11-26T11:22:47.031Z,6.00
2022-11-26T11:33:20.049Z,6.09
2022-11-26T11:43:41.583Z,6.08
2022-11-26T11:54:12.950Z,6.11
2022-11-26T12:05:10.080Z,6.11
2022-11-26T12:15:38.587Z,6.20
2022-11-26T12:26:26.247Z,6.22
2022-11-26T12:36:53.084Z,6.22
2022-11-26T12:47:26.113Z,6.27
2022-11-26T12:57:57.569Z,6.18
2022-11-26T13:08:37.368Z,6.21
2022-11-26T13:19:06.878Z,6.26
2022-11-26T13:30:06.152Z,6.41
2022-11-26T13:40:50.864Z,6.44
2022-11-26T13:51:30.671Z,6.43
2022-11-26T14:01:52.223Z,6.46
2022-11-26T14:12:17.828Z,6.49
2022-11-26T14:22:39.999Z,6.53
2022-11-26T14:33:08.511Z,6.55
2022-11-26T14:43:30.346Z,6.55
2022-11-26T14:53:52.910Z,6.52
2022-11-26T15:04:29.607Z,6.51
2022-11-26T15:14:58.860Z,6.53
2022-11-26T15:25:26.168Z,6.56
2022-11-26T15:35:56.504Z,6.61
2022-11-26T15:46:28.134Z,6.62
2022-11-26T15:57:05.075Z,6.60
2022-11-26T16:07:32.169Z,6.63
2022-11-26T16:17:53.962Z,6.62
2022-11-26T16:28:15.763Z,6.63
2022-11-26T16:38:37.243Z,6.67
2022-11-26T16:48:59.221Z,6.68
2022-11-26T16:59:24.193Z,6.68
2022-11-26T17:09:46.043Z,6.71
2022-11-26T17:20:22.558Z,6.75
2022-11-26T17:30:44.993Z,6.77
2022-11-26T17:41:06.862Z,6.78
2022-11-26T17:51:29.413Z,6.79
2022-11-26T18:01:50.979Z,6.77
2022-11-26T18:12:30.950Z,6.81
2022-11-26T18:22:54.681Z,6.80
2022-11-26T18:33:16.413Z,6.82
2022-11-26T18:43:38.962Z,6.82
2022-11-26T18:54:01.711Z,6.76
2022-11-26T19:04:23.216Z,6.75
2022-11-26T19:14:44.720Z,6.76
2022-11-26T19:25:07.990Z,6.78
2022-11-26T19:35:29.546Z,6.76
2022-11-26T19:45:51.074Z,6.65
2022-11-26T19:56:21.717Z,6.50
2022-11-26T20:06:43.744Z,6.36
2022-11-26T20:17:05.164Z,6.26
2022-11-26T20:27:26.656Z,6.26
2022-11-26T20:37:48.186Z,6.14
2022-11-26T20:48:09.779Z,6.11
2022-11-26T20:58:31.627Z,6.07
2022-11-26T21:08:53.148Z,6.05
2022-11-26T21:19:14.930Z,6.06
2022-11-26T21:29:36.565Z,5.99
2022-11-26T21:39:58.069Z,5.97
2022-11-26T21:50:19.772Z,6.01
2022-11-26T22:00:42.363Z,6.03
2022-11-26T22:11:11.894Z,6.04
2022-11-26T22:21:36.559Z,6.08
2022-11-26T22:31:58.083Z,6.08
2022-11-26T22:42:19.603Z,6.11
2022-11-26T22:52:42.153Z,6.13
2022-11-26T23:03:03.800Z,6.09
2022-11-26T23:13:25.378Z,6.02
2022-11-26T23:23:47.691Z,6.01
2022-11-26T23:34:10.062Z,5.99
2022-11-26T23:44:31.563Z,5.97
2022-11-26T23:54:53.070Z,5.96
